Time;durP1;ratioP1;P1;durP2;ratioP2;P2;SDS_P1;SDS_P2;PMS_P1;PMS_P2;Temp;Humidity;BMP_temperature;BMP_pressure;BME280_temperature;BME280_humidity;BME280_pressure;Samples;Min_cycle;Max_cycle;Signal;HPM_P1;HPM_P2
2023/09/16 00:01:43;;;;;;;13.63;12.23;;;;;;;14.10;100.00;101322.69;5011243;28;20053;-77
2023/09/16 00:04:09;;;;;;;16.13;12.40;;;;;;;14.08;100.00;101315.84;5010422;28;20394;-77
2023/09/16 00:06:37;;;;;;;13.52;11.63;;;;;;;14.02;100.00;101319.00;5010930;28;20022;-77
2023/09/16 00:09:02;;;;;;;14.82;12.15;;;;;;;14.02;100.00;101326.94;5015722;28;20080;-77
2023/09/16 00:11:29;;;;;;;12.77;11.50;;;;;;;13.99;100.00;101325.34;5022749;28;20018;-76
2023/09/16 00:13:54;;;;;;;12.73;11.45;;;;;;;13.99;100.00;101322.69;5017928;28;20536;-76
2023/09/16 00:16:20;;;;;;;14.23;12.10;;;;;;;13.99;100.00;101324.50;5022471;28;20018;-77
2023/09/16 00:18:47;;;;;;;14.50;13.00;;;;;;;13.96;100.00;101332.69;5023307;28;20058;-77
2023/09/16 00:21:14;;;;;;;14.80;13.32;;;;;;;13.91;100.00;101341.00;5022669;28;20030;-77
2023/09/16 00:23:39;;;;;;;15.43;13.82;;;;;;;13.92;100.00;101333.91;5021754;28;20026;-76
2023/09/16 00:26:06;;;;;;;13.82;12.43;;;;;;;13.92;100.00;101344.50;5020462;28;20192;-76
2023/09/16 00:28:32;;;;;;;15.02;13.43;;;;;;;13.91;100.00;101348.09;5019958;28;20041;-77
2023/09/16 00:31:00;;;;;;;15.05;13.48;;;;;;;13.83;100.00;101345.22;5039060;28;20038;-77
2023/09/16 00:33:26;;;;;;;15.77;13.95;;;;;;;13.80;100.00;101344.50;5039985;28;20025;-77
2023/09/16 00:35:52;;;;;;;15.50;14.00;;;;;;;13.79;100.00;101334.91;5039040;28;20085;-76
2023/09/16 00:38:18;;;;;;;15.75;14.18;;;;;;;13.75;100.00;101332.63;5038803;28;20049;-77
2023/09/16 00:40:43;;;;;;;15.18;13.57;;;;;;;13.75;100.00;101322.88;5038252;28;20014;-76
2023/09/16 00:43:11;;;;;;;15.02;13.63;;;;;;;13.76;100.00;101331.66;5038429;28;20048;-79
2023/09/16 00:45:37;;;;;;;14.23;12.90;;;;;;;13.76;100.00;101329.84;5031907;28;20021;-77
2023/09/16 00:48:03;;;;;;;16.30;13.68;;;;;;;13.72;100.00;101328.41;5029015;28;20504;-77
2023/09/16 00:50:28;;;;;;;16.13;14.63;;;;;;;13.72;100.00;101322.28;5047098;28;20029;-77
2023/09/16 00:52:56;;;;;;;16.33;14.82;;;;;;;13.74;100.00;101318.56;5032988;28;20026;-77
2023/09/16 00:55:26;;;;;;;17.38;15.55;;;;;;;13.68;100.00;101305.81;5018715;28;20026;-76
2023/09/16 00:57:54;;;;;;;17.55;15.80;;;;;;;13.63;100.00;101309.81;5012705;28;20041;-76
2023/09/16 01:00:23;;;;;;;16.70;14.95;;;;;;;13.63;100.00;101312.44;5012774;28;20045;-76
2023/09/16 01:02:49;;;;;;;15.98;14.40;;;;;;;13.64;100.00;101314.13;5012781;28;20030;-77
2023/09/16 01:05:15;;;;;;;16.42;14.77;;;;;;;13.56;100.00;101306.78;5011802;28;20397;-76
2023/09/16 01:07:46;;;;;;;16.45;14.95;;;;;;;13.52;100.00;101310.63;5027834;28;20030;-77
2023/09/16 01:10:13;;;;;;;16.10;14.50;;;;;;;13.55;100.00;101305.09;5013210;28;20478;-77
2023/09/16 01:12:39;;;;;;;16.20;14.60;;;;;;;13.55;100.00;101299.81;5013236;28;20080;-77
2023/09/16 01:15:13;;;;;;;15.63;14.13;;;;;;;13.52;100.00;101294.75;5011562;28;20057;-77
2023/09/16 01:18:01;;;;;;;15.63;14.10;;;;;;;13.55;100.00;101305.09;5010786;28;20037;-76
2023/09/16 01:20:28;;;;;;;16.40;14.38;;;;;;;13.49;100.00;101295.84;5013029;28;20026;-77
2023/09/16 01:22:53;;;;;;;16.40;14.73;;;;;;;13.43;100.00;101300.78;5012326;28;20012;-77
2023/09/16 01:25:19;;;;;;;15.85;14.25;;;;;;;13.37;100.00;101301.28;4980446;28;20025;-77
2023/09/16 01:27:44;;;;;;;16.85;15.15;;;;;;;13.36;100.00;101299.59;5013915;28;20026;-77
2023/09/16 01:30:11;;;;;;;16.13;14.57;;;;;;;13.36;100.00;101294.31;5012185;28;20033;-77
2023/09/16 01:32:57;;;;;;;16.52;14.90;;;;;;;13.32;100.00;101306.06;5028572;28;20022;-77
2023/09/16 01:35:27;;;;;;;16.48;14.80;;;;;;;13.27;100.00;101300.31;5014596;28;20037;-77
2023/09/16 01:37:53;;;;;;;16.15;14.55;;;;;;;13.26;100.00;101311.84;5012522;28;20022;-77
2023/09/16 01:40:23;;;;;;;16.02;14.27;;;;;;;13.28;100.00;101309.94;5012077;28;20363;-77
2023/09/16 01:42:48;;;;;;;16.33;14.63;;;;;;;13.26;100.00;101299.47;5012284;28;20453;-77
2023/09/16 01:45:17;;;;;;;17.20;14.50;;;;;;;13.22;100.00;101299.84;5012976;28;20022;-77
2023/09/16 01:47:46;;;;;;;16.38;14.75;;;;;;;13.20;100.00;101293.81;5013692;28;20056;-77
2023/09/16 01:50:11;;;;;;;17.55;15.73;;;;;;;13.20;100.00;101291.16;5012902;28;20053;-77
2023/09/16 01:52:37;;;;;;;19.02;15.75;;;;;;;13.18;100.00;101291.28;5013391;28;20474;-77
2023/09/16 01:55:02;;;;;;;16.65;15.07;;;;;;;13.15;100.00;101287.03;5022408;28;20450;-77
2023/09/16 01:57:28;;;;;;;16.17;14.40;;;;;;;13.13;100.00;101290.75;5030481;28;20152;-76
2023/09/16 01:59:53;;;;;;;16.17;14.68;;;;;;;13.13;100.00;101288.97;5047126;28;20048;-77
2023/09/16 02:02:19;;;;;;;15.93;14.32;;;;;;;13.11;100.00;101290.88;5031077;28;20026;-77
2023/09/16 02:04:48;;;;;;;16.67;14.95;;;;;;;13.13;100.00;101288.97;5032441;28;20017;-77
2023/09/16 02:07:17;;;;;;;17.20;15.48;;;;;;;13.09;100.00;101284.88;5032657;28;20064;-78
2023/09/16 02:09:46;;;;;;;20.52;18.33;;;;;;;13.10;100.00;101286.56;5033041;28;20037;-78
2023/09/16 02:12:12;;;;;;;19.27;17.38;;;;;;;13.11;100.00;101280.31;5031967;28;20063;-77
2023/09/16 02:14:38;;;;;;;17.02;15.30;;;;;;;13.06;100.00;101282.47;5032660;28;20485;-77
2023/09/16 02:17:07;;;;;;;17.05;15.40;;;;;;;13.05;100.00;101283.44;5032972;28;20049;-78
2023/09/16 02:19:32;;;;;;;18.02;16.33;;;;;;;13.02;100.00;101285.47;5047224;28;20163;-77
2023/09/16 02:21:58;;;;;;;17.02;15.07;;;;;;;12.99;100.00;101289.19;5031670;28;20246;-77
2023/09/16 02:24:23;;;;;;;15.75;14.13;;;;;;;12.97;100.00;101283.19;5031133;28;20183;-77
2023/09/16 02:26:48;;;;;;;17.65;14.15;;;;;;;12.95;100.00;101287.75;5031526;28;20037;-78
2023/09/16 02:29:14;;;;;;;16.10;14.52;;;;;;;12.95;100.00;101289.56;5037864;28;20030;-77
2023/09/16 02:31:39;;;;;;;16.27;14.75;;;;;;;12.94;100.00;101290.50;5012020;28;20101;-77
2023/09/16 02:34:04;;;;;;;16.77;14.20;;;;;;;12.89;100.00;101280.31;5013148;28;20037;-77
2023/09/16 02:36:30;;;;;;;16.23;14.45;;;;;;;12.93;100.00;101287.03;5012377;28;20029;-78
2023/09/16 02:38:57;;;;;;;15.70;14.13;;;;;;;12.90;100.00;101286.44;5010888;28;20072;-77
2023/09/16 02:41:23;;;;;;;14.75;12.60;;;;;;;12.89;100.00;101285.59;5013362;28;20036;-77
2023/09/16 02:43:48;;;;;;;15.48;13.38;;;;;;;12.89;100.00;101282.94;5010787;28;20054;-78
2023/09/16 02:46:14;;;;;;;14.45;12.95;;;;;;;12.86;100.00;101280.53;5011979;28;20036;-77
2023/09/16 02:48:42;;;;;;;15.00;12.95;;;;;;;12.84;100.00;101288.59;5012334;28;20671;-77
2023/09/16 02:51:09;;;;;;;14.65;13.23;;;;;;;12.85;100.00;101289.44;5026483;28;20113;-76
2023/09/16 02:53:36;;;;;;;16.50;14.00;;;;;;;12.82;100.00;101287.03;5013262;28;20105;-77
2023/09/16 02:56:02;;;;;;;15.18;13.52;;;;;;;12.81;100.00;101286.19;5029797;28;20057;-77
2023/09/16 02:58:28;;;;;;;15.45;13.95;;;;;;;12.82;100.00;101293.16;5031693;28;20032;-78
2023/09/16 03:00:54;;;;;;;17.65;15.18;;;;;;;12.90;100.00;101279.34;5030589;28;20647;-77
2023/09/16 03:03:20;;;;;;;18.83;15.57;;;;;;;12.94;100.00;101272.03;5032094;28;20029;-77
2023/09/16 03:05:46;;;;;;;18.13;15.00;;;;;;;12.97;100.00;101280.56;5030892;28;20033;-78
2023/09/16 03:08:14;;;;;;;17.08;15.38;;;;;;;12.96;100.00;101281.50;5030567;28;20108;-77
2023/09/16 03:10:40;;;;;;;17.13;15.27;;;;;;;12.96;100.00;101270.94;5032415;28;20041;-77
2023/09/16 03:13:06;;;;;;;16.50;14.80;;;;;;;12.94;100.00;101262.31;5029113;28;20388;-77
2023/09/16 03:15:45;;;;;;;18.17;15.30;;;;;;;12.92;100.00;101274.78;5030315;28;20029;-77
2023/09/16 03:18:10;;;;;;;16.13;14.10;;;;;;;12.89;100.00;101268.91;5030253;28;20160;-77
2023/09/16 03:20:35;;;;;;;14.45;12.95;;;;;;;12.90;100.00;101271.44;5045900;28;20478;-77
2023/09/16 03:23:01;;;;;;;14.20;12.80;;;;;;;12.88;100.00;101273.34;5029919;28;20025;-77
2023/09/16 03:25:26;;;;;;;17.25;13.70;;;;;;;12.85;100.00;101268.31;5031110;28;20390;-77
2023/09/16 03:27:51;;;;;;;14.85;13.35;;;;;;;12.85;100.00;101269.13;5032775;28;20020;-77
2023/09/16 03:30:17;;;;;;;16.05;13.75;;;;;;;12.84;100.00;101261.34;5014716;28;20060;-77
2023/09/16 03:32:43;;;;;;;15.65;14.18;;;;;;;12.81;100.00;101266.84;5009805;28;20390;-77
2023/09/16 03:35:11;;;;;;;16.77;13.25;;;;;;;12.81;100.00;101266.84;5011363;28;20022;-77
2023/09/16 03:37:37;;;;;;;16.77;14.50;;;;;;;12.80;100.00;101262.50;5012678;28;20025;-77
2023/09/16 03:40:03;;;;;;;16.80;13.90;;;;;;;12.77;100.00;101266.22;5012535;28;20436;-77
2023/09/16 03:42:28;;;;;;;16.85;15.07;;;;;;;12.80;100.00;101262.50;5008376;28;20489;-77
2023/09/16 03:44:53;;;;;;;17.10;14.18;;;;;;;12.78;100.00;101262.63;5010186;28;20731;-78
2023/09/16 03:47:18;;;;;;;17.55;13.85;;;;;;;12.77;100.00;101254.81;5009083;28;20026;-77
2023/09/16 03:49:47;;;;;;;15.88;14.27;;;;;;;12.76;100.00;101258.41;5010455;28;20467;-77
2023/09/16 03:52:13;;;;;;;16.30;14.63;;;;;;;12.75;100.00;101256.75;5012526;28;20046;-77
2023/09/16 03:54:39;;;;;;;16.80;14.85;;;;;;;12.76;100.00;101253.97;5017870;28;20068;-78
2023/09/16 03:57:04;;;;;;;16.25;14.55;;;;;;;12.75;100.00;101247.00;5028286;28;20379;-77
2023/09/16 03:59:29;;;;;;;16.98;15.25;;;;;;;12.76;100.00;101246.06;5029321;28;20064;-78
2023/09/16 04:01:56;;;;;;;16.25;14.57;;;;;;;12.72;100.00;101249.06;5032765;28;20052;-77
2023/09/16 04:04:22;;;;;;;15.77;14.23;;;;;;;12.71;100.00;101250.00;5030974;28;20016;-78
2023/09/16 04:06:48;;;;;;;17.60;15.32;;;;;;;12.72;100.00;101254.34;5033320;28;20010;-77
2023/09/16 04:09:15;;;;;;;16.10;14.55;;;;;;;12.68;100.00;101255.53;5029191;28;20099;-78
2023/09/16 04:11:42;;;;;;;15.32;13.93;;;;;;;12.67;100.00;101253.84;5029777;28;20021;-77
2023/09/16 04:14:07;;;;;;;16.02;14.48;;;;;;;12.62;100.00;101248.06;5029530;28;20631;-77
2023/09/16 04:16:33;;;;;;;16.83;14.45;;;;;;;12.61;100.00;101246.41;5029899;28;20026;-79
2023/09/16 04:18:58;;;;;;;20.00;15.18;;;;;;;12.62;100.00;101253.34;5028659;28;20794;-78
2023/09/16 04:21:24;;;;;;;16.73;14.98;;;;;;;12.60;100.00;101252.63;5028741;28;20058;-77
2023/09/16 04:23:50;;;;;;;17.25;14.85;;;;;;;12.58;100.00;101258.03;5027342;28;20432;-76
2023/09/16 04:26:17;;;;;;;15.98;14.45;;;;;;;12.53;100.00;101250.47;5033125;28;20037;-76
2023/09/16 04:28:42;;;;;;;16.35;14.75;;;;;;;12.54;100.00;101249.50;5033724;28;20451;-76
2023/09/16 04:31:09;;;;;;;15.13;13.70;;;;;;;12.53;100.00;101253.09;5033732;28;20033;-78
2023/09/16 04:33:34;;;;;;;15.50;13.93;;;;;;;12.57;100.00;101247.59;5032354;28;20040;-76
2023/09/16 04:36:01;;;;;;;15.90;14.25;;;;;;;12.53;100.00;101253.09;5033229;28;20029;-76
2023/09/16 04:38:27;;;;;;;16.08;14.38;;;;;;;12.52;100.00;101246.13;5034400;28;20083;-77
2023/09/16 04:40:53;;;;;;;16.00;14.48;;;;;;;12.45;100.00;101239.66;5035006;28;20061;-76
2023/09/16 04:43:20;;;;;;;15.48;13.90;;;;;;;12.46;100.00;101240.50;5034062;28;20041;-78
2023/09/16 04:45:49;;;;;;;18.20;16.40;;;;;;;12.46;100.00;101241.34;5032745;28;20069;-77
2023/09/16 04:48:17;;;;;;;18.00;16.10;;;;;;;12.42;100.00;101245.16;5034795;28;20042;-78
2023/09/16 04:50:47;;;;;;;15.20;13.73;;;;;;;12.47;100.00;101242.19;5033511;28;20037;-78
2023/09/16 04:53:13;;;;;;;15.43;13.95;;;;;;;12.43;100.00;101246.00;5033192;28;20515;-76
2023/09/16 04:55:41;;;;;;;16.15;13.45;;;;;;;12.41;100.00;101237.38;5034177;28;20083;-77
2023/09/16 04:58:06;;;;;;;16.92;14.82;;;;;;;12.40;100.00;101239.13;5048064;28;20124;-76
2023/09/16 05:00:33;;;;;;;17.02;14.73;;;;;;;12.40;100.00;101240.94;5030212;28;20380;-76
2023/09/16 05:03:05;;;;;;;15.98;14.30;;;;;;;12.39;100.00;101242.72;5033851;28;20071;-76
2023/09/16 05:05:32;;;;;;;18.35;14.65;;;;;;;12.38;100.00;101241.03;5032626;28;20033;-76
2023/09/16 05:08:01;;;;;;;15.57;14.13;;;;;;;12.37;100.00;101241.16;5031897;28;20021;-76
2023/09/16 05:10:26;;;;;;;16.55;14.88;;;;;;;12.37;100.00;101235.88;5032495;28;20021;-77
2023/09/16 05:12:52;;;;;;;16.45;14.88;;;;;;;12.33;100.00;101240.56;5031755;28;20052;-77
2023/09/16 05:15:17;;;;;;;16.38;14.07;;;;;;;12.39;100.00;101240.09;5031535;28;20047;-76
2023/09/16 05:17:42;;;;;;;17.85;14.80;;;;;;;12.38;100.00;101243.69;5032121;28;20104;-76
2023/09/16 05:20:08;;;;;;;16.13;14.45;;;;;;;12.36;100.00;101245.59;5031765;28;20023;-78
2023/09/16 05:22:34;;;;;;;15.90;14.25;;;;;;;12.36;100.00;101242.97;5031817;28;20025;-76
2023/09/16 05:24:59;;;;;;;21.70;14.88;;;;;;;12.37;100.00;101242.00;5032365;28;20029;-76
2023/09/16 05:27:25;;;;;;;16.00;14.35;;;;;;;12.35;100.00;101241.28;5032865;28;20033;-76
2023/09/16 05:29:52;;;;;;;16.30;14.65;;;;;;;12.36;100.00;101244.75;5014747;28;20030;-78
2023/09/16 05:32:18;;;;;;;20.98;14.32;;;;;;;12.31;100.00;101242.47;5011784;28;20022;-76
2023/09/16 05:34:47;;;;;;;16.23;14.52;;;;;;;12.32;100.00;101241.50;5026624;28;20026;-76
2023/09/16 05:37:12;;;;;;;16.80;15.07;;;;;;;12.32;100.00;101243.31;5010800;28;20044;-76
2023/09/16 05:39:38;;;;;;;16.50;14.80;;;;;;;12.32;100.00;101241.50;5014357;28;20100;-76
2023/09/16 05:42:04;;;;;;;19.10;15.43;;;;;;;12.33;100.00;101243.19;5011162;28;20034;-76
2023/09/16 05:44:29;;;;;;;19.00;16.88;;;;;;;12.39;100.00;101239.25;5012078;28;20518;-78
2023/09/16 05:46:55;;;;;;;17.10;15.43;;;;;;;12.37;100.00;101243.81;5012657;28;20497;-76
2023/09/16 05:49:20;;;;;;;17.13;15.38;;;;;;;12.41;100.00;101243.47;5012049;28;20030;-78
2023/09/16 05:51:46;;;;;;;16.65;15.02;;;;;;;12.46;100.00;101249.25;5015585;28;20086;-76
2023/09/16 05:54:13;;;;;;;16.30;14.65;;;;;;;12.47;100.00;101243.00;5017536;28;20025;-76
2023/09/16 05:56:38;;;;;;;18.50;15.65;;;;;;;12.49;100.00;101243.75;5033764;28;20029;-78
2023/09/16 05:59:05;;;;;;;17.02;15.23;;;;;;;12.53;100.00;101254.91;5033330;28;20030;-77
2023/09/16 06:01:31;;;;;;;19.27;15.90;;;;;;;12.54;100.00;101244.22;5035547;28;20494;-78
2023/09/16 06:03:58;;;;;;;18.05;15.73;;;;;;;12.60;100.00;101255.28;5031890;28;20104;-76
2023/09/16 06:06:27;;;;;;;23.55;20.05;;;;;;;12.71;100.00;101255.28;5034342;28;20112;-76
2023/09/16 06:08:56;;;;;;;21.83;19.52;;;;;;;12.78;100.00;101251.22;5033781;28;20038;-77
2023/09/16 06:11:26;;;;;;;29.05;21.00;;;;;;;12.84;100.00;101250.78;5030755;28;20029;-78
2023/09/16 06:13:53;;;;;;;22.73;20.40;;;;;;;12.89;100.00;101253.91;5031323;28;20029;-76
2023/09/16 06:16:18;;;;;;;18.65;16.73;;;;;;;12.88;100.00;101254.00;5032349;28;20098;-76
2023/09/16 06:18:45;;;;;;;19.40;17.13;;;;;;;12.94;100.00;101253.53;5031759;28;20072;-76
2023/09/16 06:21:11;;;;;;;19.25;17.15;;;;;;;12.95;100.00;101263.97;5030961;28;20026;-78
2023/09/16 06:23:37;;;;;;;20.35;17.42;;;;;;;12.97;100.00;101261.22;5031105;28;20491;-78
2023/09/16 06:26:03;;;;;;;21.23;19.02;;;;;;;13.02;100.00;101267.00;5028808;28;20045;-76
2023/09/16 06:28:28;;;;;;;21.95;19.83;;;;;;;13.09;100.00;101261.09;5029171;28;20025;-77
2023/09/16 06:30:53;;;;;;;23.80;21.55;;;;;;;13.24;100.00;101258.28;5010002;28;20029;-76
2023/09/16 06:33:19;;;;;;;26.05;23.27;;;;;;;13.32;100.00;101259.34;5012572;28;20036;-78
2023/09/16 06:35:46;;;;;;;24.20;21.77;;;;;;;13.40;100.00;101258.75;5012133;28;20108;-77
2023/09/16 06:38:12;;;;;;;24.45;21.83;;;;;;;13.49;100.00;101258.84;5012567;28;20048;-79
2023/09/16 06:40:38;;;;;;;25.67;22.83;;;;;;;13.60;100.00;101260.63;5013849;28;20026;-79
2023/09/16 06:43:03;;;;;;;23.95;21.75;;;;;;;13.70;100.00;101266.03;5010385;28;20083;-77
2023/09/16 06:45:28;;;;;;;25.08;22.30;;;;;;;13.80;100.00;101262.53;5011074;28;20072;-77
2023/09/16 06:47:58;;;;;;;23.92;21.42;;;;;;;13.87;100.00;101262.03;5011205;28;20381;-78
2023/09/16 06:50:32;;;;;;;24.40;21.88;;;;;;;13.98;100.00;101261.97;5012852;28;20044;-77
2023/09/16 06:52:59;;;;;;;24.92;22.50;;;;;;;14.11;100.00;101260.03;5013759;28;20053;-77
2023/09/16 06:55:24;;;;;;;26.08;23.67;;;;;;;14.22;100.00;101256.50;5024714;28;20018;-78
2023/09/16 06:57:50;;;;;;;24.88;22.33;;;;;;;14.37;100.00;101261.34;5032219;28;20030;-79
2023/09/16 07:00:16;;;;;;;24.95;22.42;;;;;;;14.56;100.00;101262.50;5030967;28;20393;-77
2023/09/16 07:02:41;;;;;;;28.95;22.00;;;;;;;14.69;100.00;101252.53;5031813;28;20025;-77
2023/09/16 07:05:10;;;;;;;23.30;21.10;;;;;;;14.84;100.00;101247.75;5035018;28;20079;-77
2023/09/16 07:07:37;;;;;;;24.08;21.25;;;;;;;15.02;100.00;101256.78;5029375;28;20025;-78
2023/09/16 07:10:03;;;;;;;23.77;21.48;;;;;;;15.14;100.00;101255.72;5030177;28;20445;-78
2023/09/16 07:12:28;;;;;;;24.80;21.83;;;;;;;15.30;100.00;101258.72;5030646;28;20079;-77
2023/09/16 07:14:53;;;;;;;23.77;21.55;;;;;;;15.49;100.00;101252.63;5029532;28;20682;-77
2023/09/16 07:17:19;;;;;;;22.40;20.13;;;;;;;15.66;100.00;101252.03;5030091;28;20032;-77
2023/09/16 07:19:48;;;;;;;22.95;20.58;;;;;;;15.90;100.00;101254.28;5046064;28;20066;-77
2023/09/16 07:22:14;;;;;;;22.92;20.55;;;;;;;16.09;100.00;101242.03;5030016;28;20025;-77
2023/09/16 07:24:39;;;;;;;26.65;23.02;;;;;;;16.26;100.00;101244.81;5030039;28;20586;-77
2023/09/16 07:27:05;;;;;;;22.75;20.35;;;;;;;16.44;100.00;101249.44;5029582;28;20052;-77
2023/09/16 07:29:30;;;;;;;19.80;17.80;;;;;;;16.60;100.00;101247.84;5018376;28;20032;-77
2023/09/16 07:31:56;;;;;;;19.77;17.73;;;;;;;16.75;100.00;101245.59;5013140;28;20080;-76
2023/09/16 07:34:22;;;;;;;23.85;17.83;;;;;;;16.87;100.00;101248.94;5024897;28;20386;-77
2023/09/16 07:36:49;;;;;;;20.90;17.60;;;;;;;17.07;100.00;101247.88;5008578;28;20112;-78
2023/09/16 07:39:17;;;;;;;19.02;17.08;;;;;;;17.18;100.00;101257.50;5011645;28;20062;-78
2023/09/16 07:41:42;;;;;;;20.17;17.55;;;;;;;17.22;100.00;101259.75;5009158;28;20034;-77
2023/09/16 07:44:08;;;;;;;18.65;16.77;;;;;;;17.34;100.00;101263.03;5010585;28;20088;-78
2023/09/16 07:46:34;;;;;;;19.02;16.55;;;;;;;17.47;99.39;101268.84;5010830;28;20064;-77
2023/09/16 07:49:00;;;;;;;18.00;16.20;;;;;;;17.66;99.18;101257.28;5025052;28;20029;-77
2023/09/16 07:51:25;;;;;;;18.90;15.80;;;;;;;17.83;97.00;101253.00;5010543;28;20038;-78
2023/09/16 07:53:51;;;;;;;18.08;16.27;;;;;;;18.07;97.51;101255.91;5010406;28;20025;-77
2023/09/16 07:56:18;;;;;;;18.45;16.75;;;;;;;18.23;96.59;101254.38;5029436;28;20045;-76
2023/09/16 07:58:44;;;;;;;17.48;15.38;;;;;;;18.46;96.07;101255.59;5032225;28;20022;-76
2023/09/16 08:01:09;;;;;;;17.05;15.23;;;;;;;18.62;95.50;101262.88;5034154;28;20029;-77
2023/09/16 08:03:37;;;;;;;17.77;14.35;;;;;;;18.77;94.33;101261.31;5034002;28;20108;-77
2023/09/16 08:06:03;;;;;;;17.02;15.00;;;;;;;18.88;93.45;101262.91;5032892;28;20028;-77
2023/09/16 08:08:30;;;;;;;17.40;14.20;;;;;;;19.02;93.56;101262.31;5032246;28;20033;-77
2023/09/16 08:10:56;;;;;;;14.88;13.27;;;;;;;19.18;92.63;101267.72;5032963;28;20485;-77
2023/09/16 08:13:22;;;;;;;15.10;12.90;;;;;;;19.25;91.37;101260.78;5033750;28;20038;-77
2023/09/16 08:15:48;;;;;;;14.05;12.65;;;;;;;19.45;90.92;101273.88;5033599;28;20028;-76
2023/09/16 08:18:14;;;;;;;14.38;12.88;;;;;;;19.51;90.50;101268.72;5032844;28;20026;-76
2023/09/16 08:20:39;;;;;;;13.45;12.05;;;;;;;19.63;89.83;101266.66;5032270;28;20025;-77
2023/09/16 08:23:04;;;;;;;15.75;13.77;;;;;;;19.69;88.59;101266.81;5047889;28;20091;-76
2023/09/16 08:25:31;;;;;;;14.77;13.27;;;;;;;19.78;88.60;101269.50;5032053;28;20026;-76
2023/09/16 08:27:57;;;;;;;16.15;13.63;;;;;;;19.98;89.42;101269.03;5032662;28;20040;-77
2023/09/16 08:30:23;;;;;;;13.43;12.10;;;;;;;20.15;86.81;101271.75;5013283;28;20417;-76
2023/09/16 08:32:48;;;;;;;14.38;12.82;;;;;;;20.32;85.92;101274.25;5012593;28;20191;-76
2023/09/16 08:35:14;;;;;;;17.98;12.80;;;;;;;20.54;83.82;101270.13;5013128;28;20116;-76
2023/09/16 08:37:39;;;;;;;12.38;11.07;;;;;;;20.69;82.48;101280.13;5012871;28;20062;-76
2023/09/16 08:40:05;;;;;;;13.35;11.50;;;;;;;20.86;82.24;101288.00;5012780;28;20026;-77
2023/09/16 08:42:43;;;;;;;13.75;11.18;;;;;;;20.93;82.97;101296.16;5013758;28;20108;-76
2023/09/16 08:45:14;;;;;;;14.75;11.80;;;;;;;21.03;80.86;101294.13;5012563;28;20018;-76
2023/09/16 08:47:43;;;;;;;13.65;11.73;;;;;;;21.14;81.00;101288.41;5012862;28;20038;-76
2023/09/16 08:50:10;;;;;;;15.40;11.63;;;;;;;21.11;79.89;101291.44;5012884;28;20018;-77
2023/09/16 08:52:46;;;;;;;13.52;11.77;;;;;;;21.19;81.14;101293.25;5012569;28;20052;-77
2023/09/16 08:55:13;;;;;;;16.73;11.27;;;;;;;21.30;80.53;101290.25;5023587;28;20029;-77
2023/09/16 08:57:59;;;;;;;12.48;11.18;;;;;;;21.43;80.42;101295.88;5033646;28;20025;-77
2023/09/16 09:00:26;;;;;;;11.98;10.35;;;;;;;21.55;79.34;101290.97;5032589;28;20053;-77
2023/09/16 09:02:53;;;;;;;14.80;11.30;;;;;;;21.64;78.97;101289.97;5031458;28;20444;-77
2023/09/16 09:05:19;;;;;;;13.48;12.05;;;;;;;21.54;80.14;101295.50;5032846;28;20021;-77
2023/09/16 09:07:47;;;;;;;13.90;11.68;;;;;;;21.81;79.21;101293.38;5032494;28;20398;-77
2023/09/16 09:10:13;;;;;;;12.45;11.23;;;;;;;22.04;77.32;101282.75;5030584;28;20025;-77
2023/09/16 09:12:40;;;;;;;13.35;12.02;;;;;;;22.19;77.53;101292.50;5032358;28;20029;-77
2023/09/16 09:15:13;;;;;;;14.43;12.20;;;;;;;22.36;76.84;101293.19;5032352;28;20537;-77
2023/09/16 09:17:39;;;;;;;;;;;;;;;22.66;79.02;101293.31;5031848;28;20079;-77
2023/09/16 09:20:11;;;;;;;14.45;12.93;;;;;;;22.48;73.28;101304.38;5031618;28;19924;-76
2023/09/16 09:22:39;;;;;;;13.55;11.70;;;;;;;22.79;74.42;101299.69;5032292;28;20025;-77
2023/09/16 09:25:05;;;;;;;12.35;10.82;;;;;;;22.84;71.16;101301.91;5031572;28;20053;-77
2023/09/16 09:27:30;;;;;;;11.57;10.07;;;;;;;22.81;72.73;101299.56;5030706;28;20128;-77
2023/09/16 09:29:55;;;;;;;11.65;10.55;;;;;;;23.03;72.74;101306.72;5015815;28;20103;-77
2023/09/16 09:32:21;;;;;;;11.60;9.75;;;;;;;23.14;71.30;101302.75;5011611;28;20033;-77
2023/09/16 09:34:47;;;;;;;11.90;10.70;;;;;;;23.08;68.29;101304.31;5011015;28;20528;-77
2023/09/16 09:37:18;;;;;;;13.40;10.23;;;;;;;23.26;68.60;101311.19;5010340;28;20434;-77
2023/09/16 09:39:46;;;;;;;11.15;8.95;;;;;;;23.22;66.48;101316.09;5011589;28;20030;-77
2023/09/16 09:42:21;;;;;;;11.88;8.60;;;;;;;23.33;67.41;101310.25;5011185;28;20397;-77
2023/09/16 09:44:46;;;;;;;9.15;8.25;;;;;;;23.14;65.19;101314.31;5026440;28;20133;-77
2023/09/16 09:47:15;;;;;;;9.20;8.25;;;;;;;23.21;64.50;101316.25;5011472;28;20109;-77
2023/09/16 09:49:47;;;;;;;8.40;7.50;;;;;;;23.30;66.89;101315.19;5011149;28;20076;-77
2023/09/16 09:52:13;;;;;;;9.95;7.90;;;;;;;23.31;65.04;101319.53;5011324;28;20065;-76
2023/09/16 09:54:39;;;;;;;8.57;7.40;;;;;;;23.37;64.00;101308.03;5018591;28;20025;-77
2023/09/16 09:57:06;;;;;;;8.80;7.82;;;;;;;23.62;62.64;101312.13;5030545;28;20032;-77
2023/09/16 09:59:31;;;;;;;8.50;7.65;;;;;;;24.02;62.90;101307.22;5046939;28;20049;-77
2023/09/16 10:01:57;;;;;;;8.18;7.38;;;;;;;24.69;61.18;101305.00;5030853;28;20470;-77
2023/09/16 10:04:23;;;;;;;8.57;7.63;;;;;;;25.19;59.79;101302.25;5031724;28;20022;-77
2023/09/16 10:06:48;;;;;;;10.40;9.40;;;;;;;25.10;59.81;101295.38;5031614;28;20096;-77
2023/09/16 10:09:14;;;;;;;13.23;9.60;;;;;;;25.12;60.97;101296.00;5031037;28;20111;-76
2023/09/16 10:11:44;;;;;;;11.75;10.32;;;;;;;24.88;60.04;101298.13;5030706;28;20075;-76
2023/09/16 10:14:13;;;;;;;11.63;10.43;;;;;;;24.67;59.58;101306.22;5030281;28;20026;-76
2023/09/16 10:16:38;;;;;;;10.40;9.30;;;;;;;24.69;62.12;101293.38;5030053;28;20025;-77
2023/09/16 10:19:04;;;;;;;11.07;10.02;;;;;;;24.54;62.01;101288.09;5031180;28;20025;-76
2023/09/16 10:21:30;;;;;;;12.07;9.77;;;;;;;24.37;60.45;101295.59;5029909;28;20485;-76
2023/09/16 10:23:56;;;;;;;12.32;10.55;;;;;;;24.39;61.80;101292.72;5029758;28;20032;-76
2023/09/16 10:26:22;;;;;;;12.77;9.88;;;;;;;24.32;63.27;101292.66;5046159;28;20060;-77
2023/09/16 10:28:52;;;;;;;11.57;10.35;;;;;;;24.35;61.95;101294.97;5024131;28;20022;-76
2023/09/16 10:31:18;;;;;;;12.00;10.15;;;;;;;24.38;62.15;101294.56;5010021;28;20101;-76
2023/09/16 10:33:44;;;;;;;11.52;10.10;;;;;;;24.43;62.65;101288.63;5010920;28;20026;-76
2023/09/16 10:36:12;;;;;;;12.93;10.07;;;;;;;24.32;62.63;101284.59;5010575;28;20454;-76
2023/09/16 10:38:38;;;;;;;11.18;8.70;;;;;;;24.53;63.30;101285.59;5009960;28;20026;-76
2023/09/16 10:41:08;;;;;;;13.13;11.38;;;;;;;24.53;63.15;101291.81;5010084;28;20030;-76
2023/09/16 10:43:34;;;;;;;11.63;10.52;;;;;;;24.75;64.05;101281.84;5010544;28;20045;-76
2023/09/16 10:46:00;;;;;;;11.93;10.68;;;;;;;24.67;61.92;101279.31;5009692;28;20490;-75
2023/09/16 10:48:26;;;;;;;11.85;10.63;;;;;;;24.54;61.95;101281.91;5010497;28;20478;-76
2023/09/16 10:50:58;;;;;;;10.43;9.43;;;;;;;24.55;63.36;101273.63;5010274;28;20067;-76
2023/09/16 10:53:26;;;;;;;;;;;;;;;24.75;65.68;101265.69;5008912;28;20064;-76
2023/09/16 10:55:52;;;;;;;11.05;9.98;;;;;;;24.69;62.64;101267.31;5027029;28;19913;-76
2023/09/16 10:58:32;;;;;;;13.18;10.68;;;;;;;24.76;62.14;101263.84;5029365;28;20470;-76
2023/09/16 11:00:58;;;;;;;11.13;9.85;;;;;;;24.87;60.50;101266.84;5029456;28;20544;-76
2023/09/16 11:03:31;;;;;;;10.65;9.55;;;;;;;24.94;61.35;101269.56;5029932;28;20056;-77